createdAt,value
2022-08-17T03:20:03.013Z,16.83
2022-08-17T03:23:15.027Z,16.84
2022-08-17T03:26:24.765Z,16.89
2022-08-17T03:29:39.690Z,16.90
2022-08-17T03:32:52.140Z,16.92
2022-08-17T03:36:06.654Z,16.92
2022-08-17T03:39:16.387Z,16.90
2022-08-17T03:42:31.836Z,16.82
2022-08-17T03:45:56.817Z,16.78
2022-08-17T03:49:20.949Z,16.80
2022-08-17T03:52:51.941Z,16.85
2022-08-17T03:56:16.231Z,16.89
2022-08-17T03:59:28.350Z,16.89
2022-08-17T04:02:40.420Z,16.92
2022-08-17T04:05:50.421Z,16.94
2022-08-17T04:09:03.739Z,16.97
2022-08-17T04:12:16.066Z,17.02
2022-08-17T04:15:26.797Z,17.05
2022-08-17T04:18:36.599Z,17.10
2022-08-17T04:21:51.588Z,17.09
2022-08-17T04:25:15.526Z,17.09
2022-08-17T04:28:27.408Z,17.16
2022-08-17T04:31:37.401Z,17.30
2022-08-17T04:34:47.127Z,17.36
2022-08-17T04:37:56.938Z,17.37
2022-08-17T04:41:22.474Z,17.48
2022-08-17T04:44:37.677Z,17.54
2022-08-17T04:47:50.320Z,17.55
2022-08-17T04:51:00.725Z,17.49
2022-08-17T04:54:12.415Z,17.57
2022-08-17T04:57:24.383Z,17.66
2022-08-17T05:00:35.083Z,17.75
2022-08-17T07:10:04.440Z,20.14
2022-08-17T07:13:29.978Z,20.16
2022-08-17T07:16:43.917Z,20.18
2022-08-17T07:20:04.225Z,20.24
2022-08-17T07:23:24.263Z,20.30
2022-08-17T07:26:35.328Z,20.43
2022-08-17T07:29:53.523Z,20.51
2022-08-17T07:33:13.383Z,20.56
2022-08-17T07:36:33.485Z,20.66
2022-08-17T07:40:15.313Z,20.83
2022-08-17T07:43:24.540Z,20.97
2022-08-17T07:46:47.125Z,21.12
2022-08-17T07:49:56.656Z,21.31
2022-08-17T07:53:17.290Z,21.51
2022-08-17T07:56:38.951Z,21.72
2022-08-17T08:00:16.282Z,21.86
2022-08-17T08:03:31.672Z,22.09
2022-08-17T08:06:49.150Z,22.17
2022-08-17T08:10:11.719Z,22.23
2022-08-17T08:13:25.134Z,22.29
2022-08-17T08:16:36.614Z,22.39
2022-08-17T08:19:46.109Z,22.58
2022-08-17T08:23:07.261Z,22.79
2022-08-17T08:26:26.207Z,22.95
2022-08-17T08:29:48.548Z,23.02
2022-08-17T08:33:12.605Z,23.12
2022-08-17T08:37:14.337Z,23.25
2022-08-17T08:40:22.022Z,23.41
2022-08-17T08:43:43.190Z,23.58
2022-08-17T08:47:03.824Z,23.74
2022-08-17T08:50:37.911Z,23.87
2022-08-17T08:53:59.451Z,23.98
2022-08-17T08:57:25.679Z,24.04
2022-08-17T09:00:44.761Z,24.11
2022-08-17T09:04:23.240Z,24.13
2022-08-17T09:07:44.079Z,23.96
2022-08-17T09:11:00.662Z,23.89
2022-08-17T09:14:21.993Z,23.81
2022-08-17T09:17:44.210Z,23.77
2022-08-17T09:20:57.806Z,23.69
2022-08-17T09:24:16.910Z,23.61
2022-08-17T09:27:35.073Z,23.62
2022-08-17T09:30:48.668Z,23.65
2022-08-17T09:34:03.060Z,23.76
2022-08-17T09:37:25.649Z,23.92
2022-08-17T09:40:51.688Z,23.95
2022-08-17T09:44:22.598Z,23.98
2022-08-17T09:47:45.248Z,24.04
2022-08-17T09:51:06.803Z,24.19
2022-08-17T09:54:38.619Z,24.42
2022-08-17T09:58:04.767Z,24.61
2022-08-17T10:01:37.460Z,24.76
2022-08-17T10:05:02.212Z,24.88
2022-08-17T10:08:22.678Z,24.98
2022-08-17T10:11:50.457Z,24.99
2022-08-17T10:15:23.189Z,24.99
2022-08-17T10:18:44.906Z,25.02
2022-08-17T10:22:14.637Z,25.05
2022-08-17T10:25:56.767Z,25.07
2022-08-17T10:29:13.259Z,25.14
2022-08-17T10:32:32.204Z,25.27
2022-08-17T10:35:49.676Z,25.57
2022-08-17T10:39:08.332Z,26.28
2022-08-17T10:42:30.913Z,27.12
2022-08-17T10:46:10.567Z,27.15
2022-08-17T10:49:33.277Z,27.76
2022-08-17T10:52:49.137Z,28.21
2022-08-17T10:56:21.626Z,28.98
2022-08-17T10:59:54.439Z,29.02
2022-08-17T11:03:19.474Z,29.27
2022-08-17T11:06:45.570Z,29.32
2022-08-17T11:10:19.437Z,29.21
2022-08-17T11:13:43.096Z,28.88
2022-08-17T11:17:15.545Z,28.63
2022-08-17T11:20:52.812Z,28.40
2022-08-17T11:24:15.471Z,28.28
2022-08-17T11:27:29.838Z,28.51
2022-08-17T11:30:46.863Z,28.66
2022-08-17T11:34:03.404Z,28.58
2022-08-17T11:37:29.348Z,28.38
2022-08-17T11:40:54.158Z,28.55
2022-08-17T11:44:18.217Z,28.90
2022-08-17T11:48:09.095Z,29.06
2022-08-17T11:51:33.244Z,29.13
2022-08-17T11:54:51.299Z,29.03
2022-08-17T11:58:24.177Z,28.97
2022-08-17T12:01:52.897Z,29.16
2022-08-17T12:05:25.974Z,29.41
2022-08-17T12:08:45.608Z,29.53
2022-08-17T12:12:12.024Z,29.46
2022-08-17T12:15:30.963Z,29.66
2022-08-17T12:18:42.733Z,29.72
2022-08-17T12:21:57.620Z,29.60
2022-08-17T12:25:15.403Z,29.39
2022-08-17T12:28:28.695Z,29.53
2022-08-17T12:31:50.913Z,29.75
2022-08-17T12:35:04.249Z,29.85
2022-08-17T12:38:31.974Z,30.00
2022-08-17T12:41:50.282Z,30.26
2022-08-17T12:45:00.180Z,30.61
2022-08-17T12:48:16.110Z,31.20
2022-08-17T12:51:25.649Z,31.80
2022-08-17T12:54:42.544Z,31.65
2022-08-17T12:57:54.391Z,31.54
2022-08-17T13:01:09.417Z,31.29
2022-08-17T13:04:21.145Z,31.06
2022-08-17T13:07:34.519Z,31.20
2022-08-17T13:10:44.617Z,31.37
2022-08-17T13:13:57.245Z,31.28
2022-08-17T13:17:13.476Z,31.00
2022-08-17T13:20:24.894Z,30.92
2022-08-17T13:23:34.733Z,31.25
2022-08-17T13:26:48.071Z,31.59
2022-08-17T13:29:59.698Z,32.29
2022-08-17T13:33:26.630Z,33.13
2022-08-17T13:37:18.548Z,34.06
2022-08-17T13:40:50.416Z,34.37
2022-08-17T13:44:04.102Z,34.23
2022-08-17T13:47:18.811Z,33.91
2022-08-17T13:50:30.612Z,34.01
2022-08-17T13:53:57.766Z,34.36
2022-08-17T13:57:20.219Z,34.89
2022-08-17T14:00:33.559Z,34.91
2022-08-17T14:03:43.076Z,35.03
2022-08-17T14:06:57.584Z,35.22
2022-08-17T14:10:21.165Z,35.50
2022-08-17T14:13:32.071Z,35.68
2022-08-17T14:16:44.856Z,34.82
2022-08-17T14:20:00.969Z,34.76
2022-08-17T14:23:14.942Z,34.67
2022-08-17T14:26:28.816Z,33.62
2022-08-17T14:29:43.204Z,32.72
2022-08-17T14:32:56.291Z,32.22
2022-08-17T14:36:08.015Z,31.88
2022-08-17T14:39:28.596Z,31.64
2022-08-17T14:42:46.932Z,31.71
2022-08-17T14:45:56.412Z,31.93
2022-08-17T14:49:05.889Z,31.88
2022-08-17T14:52:18.168Z,31.98
2022-08-17T14:55:28.250Z,32.35
2022-08-17T14:58:39.052Z,32.90
2022-08-17T15:01:52.326Z,33.39
2022-08-17T15:05:07.229Z,33.62
2022-08-17T15:08:17.721Z,33.60
2022-08-17T15:11:27.172Z,33.54
2022-08-17T15:14:37.939Z,33.47
2022-08-17T15:17:51.035Z,33.76
2022-08-17T15:21:00.538Z,33.94
2022-08-17T15:24:10.324Z,34.15
2022-08-17T15:27:32.623Z,34.23
2022-08-17T15:30:46.605Z,34.18
2022-08-17T15:33:56.459Z,34.30
2022-08-17T15:37:06.075Z,34.23
2022-08-17T15:40:18.777Z,34.29
2022-08-17T15:43:34.693Z,34.18
2022-08-17T15:46:45.444Z,34.09
2022-08-17T15:50:00.172Z,33.71
2022-08-17T15:53:10.018Z,33.29
2022-08-17T15:56:20.536Z,33.07
2022-08-17T15:59:30.857Z,33.02
2022-08-17T16:03:20.363Z,33.17
2022-08-17T16:06:12.856Z,33.29
2022-08-17T16:09:22.310Z,33.20
2022-08-17T16:12:31.762Z,32.89
2022-08-17T16:15:41.379Z,32.53
2022-08-17T16:18:54.601Z,32.06
2022-08-17T16:22:11.744Z,31.47
2022-08-17T16:25:38.258Z,30.93
2022-08-17T16:28:58.823Z,31.28
2022-08-17T16:32:13.570Z,31.79
2022-08-17T16:35:26.877Z,31.84
2022-08-17T16:38:38.461Z,31.91
2022-08-17T16:41:48.549Z,31.83
2022-08-17T16:45:03.230Z,31.58
2022-08-17T16:48:14.782Z,31.09
2022-08-17T16:51:26.061Z,30.79
2022-08-17T16:54:40.688Z,30.35
2022-08-17T16:57:50.934Z,30.14
2022-08-17T17:01:00.543Z,30.15
2022-08-17T17:04:26.685Z,30.18
2022-08-17T17:07:50.482Z,30.08
2022-08-17T17:11:04.822Z,29.91
2022-08-17T17:14:29.150Z,29.68
2022-08-17T17:17:40.617Z,29.58
2022-08-17T17:20:58.658Z,29.48
2022-08-17T17:24:19.034Z,29.39
2022-08-17T17:27:39.459Z,29.32
2022-08-17T17:30:56.450Z,29.27
2022-08-17T17:34:08.985Z,29.24
2022-08-17T17:37:30.126Z,29.14
2022-08-17T17:40:44.771Z,29.09
2022-08-17T17:44:02.877Z,29.02
2022-08-17T17:47:13.410Z,28.92
2022-08-17T17:50:31.606Z,28.73
2022-08-17T17:53:51.732Z,28.61
2022-08-17T17:57:08.295Z,28.46
2022-08-17T18:00:23.959Z,28.31
2022-08-17T18:03:50.464Z,28.16
2022-08-17T18:07:13.262Z,28.06
2022-08-17T18:14:14.190Z,27.94
2022-08-17T18:17:23.762Z,27.85
2022-08-17T18:20:43.413Z,27.78
2022-08-17T18:24:06.416Z,27.70
2022-08-17T18:27:26.410Z,27.58
2022-08-17T18:30:39.689Z,27.44
2022-08-17T18:33:54.576Z,27.30
2022-08-17T18:37:09.042Z,27.07
2022-08-17T18:40:33.076Z,26.88
2022-08-17T18:43:52.866Z,26.76
2022-08-17T18:47:15.578Z,26.63
2022-08-17T18:50:27.910Z,26.55
2022-08-17T18:53:40.527Z,26.42
2022-08-17T18:56:55.837Z,26.22
2022-08-17T19:00:13.351Z,26.01
2022-08-17T19:03:26.815Z,25.74
2022-08-17T19:06:40.588Z,25.50
2022-08-17T19:09:54.293Z,25.38
2022-08-17T19:13:13.907Z,25.34
2022-08-17T19:16:30.524Z,25.21
2022-08-17T19:19:49.327Z,25.02
2022-08-17T19:23:11.672Z,24.77
2022-08-17T19:26:54.479Z,24.66
2022-08-17T19:29:58.358Z,24.51
2022-08-17T19:33:10.190Z,24.45
2022-08-17T19:36:37.272Z,24.28
2022-08-17T19:39:56.165Z,24.18
2022-08-17T19:43:16.111Z,24.12
2022-08-17T19:46:36.018Z,24.07
2022-08-17T19:49:59.770Z,23.94
2022-08-17T19:53:41.990Z,23.87
2022-08-17T19:57:08.127Z,23.68
2022-08-17T20:00:19.454Z,23.60
2022-08-17T20:03:34.926Z,23.55
2022-08-17T20:06:49.109Z,23.52
2022-08-17T20:10:12.643Z,23.44
